createdAt,value
2019-01-09T00:01:32.720Z,100537.07
2019-01-09T00:04:00.914Z,100539.50
2019-01-09T00:06:29.104Z,100547.16
2019-01-09T00:08:57.286Z,100545.98
2019-01-09T00:11:25.484Z,100547.59
2019-01-09T00:13:53.660Z,100553.66
2019-01-09T00:16:21.858Z,100550.33
2019-01-09T00:18:50.049Z,100561.25
2019-01-09T00:21:18.236Z,100557.18
2019-01-09T00:23:46.418Z,100567.08
2019-01-09T00:26:14.617Z,100575.26
2019-01-09T00:28:42.797Z,100566.48
2019-01-09T00:31:10.992Z,100577.45
2019-01-09T00:33:39.176Z,100577.48
2019-01-09T00:36:07.374Z,100580.54
2019-01-09T00:38:35.558Z,100592.28
2019-01-09T00:41:03.757Z,100585.20
2019-01-09T00:43:31.938Z,100602.18
2019-01-09T00:46:00.146Z,100596.50
2019-01-09T00:48:28.318Z,100613.48
2019-01-09T00:50:56.509Z,100612.73
2019-01-09T00:53:24.699Z,100613.80
2019-01-09T00:56:33.018Z,100620.84
2019-01-09T00:59:01.200Z,100631.95
2019-01-09T01:01:29.403Z,100640.14
2019-01-09T01:07:36.922Z,100642.33
2019-01-09T01:10:43.921Z,100652.97
2019-01-09T01:13:50.902Z,100666.02
2019-01-09T01:16:57.906Z,100659.47
2019-01-09T01:23:18.482Z,100675.09
2019-01-09T01:32:28.135Z,100685.22
2019-01-09T01:35:35.171Z,100686.70
2019-01-09T01:38:42.161Z,100699.85
2019-01-09T01:41:50.534Z,100700.91
2019-01-09T01:44:57.515Z,100702.83
2019-01-09T01:48:05.882Z,100707.25
2019-01-09T01:51:12.873Z,100717.83
2019-01-09T02:03:35.550Z,100731.08
2019-01-09T02:09:43.733Z,100742.00
2019-01-09T02:12:52.046Z,100758.44
2019-01-09T02:15:59.018Z,100756.58
2019-01-09T02:19:07.335Z,100754.48
2019-01-09T02:22:14.327Z,100747.16
2019-01-09T02:31:23.257Z,100769.92
2019-01-09T02:33:51.454Z,100776.19
2019-01-09T02:36:19.647Z,100768.55
2019-01-09T02:38:47.842Z,100780.11
2019-01-09T02:41:16.022Z,100783.19
2019-01-09T02:43:44.218Z,100790.03
2019-01-09T02:46:12.401Z,100792.70
2019-01-09T02:48:40.605Z,100800.13
2019-01-09T02:51:08.795Z,100796.56
2019-01-09T02:53:36.989Z,100793.02
2019-01-09T02:56:05.171Z,100799.31
2019-01-09T02:58:33.368Z,100800.16
2019-01-09T03:01:01.544Z,100798.00
2019-01-09T03:03:29.739Z,100797.20
2019-01-09T03:05:57.923Z,100801.31
2019-01-09T03:08:26.122Z,100808.16
2019-01-09T03:10:54.317Z,100807.06
2019-01-09T03:13:22.509Z,100800.70
2019-01-09T03:15:50.697Z,100798.18
2019-01-09T03:18:18.878Z,100802.29
2019-01-09T03:20:47.093Z,100804.69
2019-01-09T03:23:15.266Z,100806.30
2019-01-09T03:25:43.466Z,100814.55
2019-01-09T03:28:11.647Z,100807.73
2019-01-09T03:30:39.847Z,100815.12
2019-01-09T03:33:08.035Z,100804.17
2019-01-09T03:35:36.219Z,100801.50
2019-01-09T03:38:04.403Z,100816.55
2019-01-09T03:40:32.602Z,100811.84
2019-01-09T03:43:00.781Z,100824.16
2019-01-09T03:45:28.978Z,100808.34
2019-01-09T03:47:57.232Z,100810.59
2019-01-09T03:50:25.437Z,100824.52
2019-01-09T03:52:53.618Z,100816.06
2019-01-09T03:55:21.824Z,100820.17
2019-01-09T03:57:50.010Z,100816.61
2019-01-09T04:00:18.205Z,100828.69
2019-01-09T04:02:46.389Z,100822.09
2019-01-09T04:05:14.584Z,100827.23
2019-01-09T04:07:42.778Z,100826.14
2019-01-09T04:10:10.967Z,100839.19
2019-01-09T04:12:39.158Z,100831.50
2019-01-09T04:15:07.422Z,100837.19
2019-01-09T04:17:35.601Z,100822.98
2019-01-09T04:20:43.913Z,100841.08
2019-01-09T04:23:12.096Z,100837.85
2019-01-09T04:25:40.296Z,100841.14
2019-01-09T04:28:08.479Z,100853.76
2019-01-09T04:30:36.675Z,100850.83
2019-01-09T04:33:04.862Z,100855.24
2019-01-09T04:35:33.057Z,100859.89
2019-01-09T04:38:01.237Z,100870.52
2019-01-09T04:40:29.444Z,100870.48
2019-01-09T04:42:57.613Z,100879.25
2019-01-09T04:45:25.805Z,100871.55
2019-01-09T04:47:54.004Z,100884.70
2019-01-09T04:50:22.181Z,100885.25
2019-01-09T04:52:50.382Z,100881.95
2019-01-09T04:55:18.566Z,100878.95
2019-01-09T04:57:46.761Z,100886.61
2019-01-09T05:00:14.966Z,100883.03
2019-01-09T05:02:43.160Z,100887.41
2019-01-09T05:05:11.341Z,100889.57
2019-01-09T05:07:39.543Z,100882.17
2019-01-09T05:10:47.834Z,100883.33
2019-01-09T05:13:16.031Z,100889.62
2019-01-09T05:15:44.227Z,100888.28
2019-01-09T05:18:12.422Z,100886.97
2019-01-09T05:20:40.606Z,100887.24
2019-01-09T05:23:08.802Z,100885.84
2019-01-09T05:25:36.986Z,100892.72
2019-01-09T05:28:05.195Z,100893.55
2019-01-09T05:30:52.735Z,100901.48
2019-01-09T05:33:20.932Z,100905.89
2019-01-09T05:35:49.115Z,100908.09
2019-01-09T05:38:17.310Z,100912.19
2019-01-09T05:40:45.492Z,100905.04
2019-01-09T05:43:13.692Z,100916.23
2019-01-09T05:45:41.874Z,100919.27
2019-01-09T05:48:10.076Z,100922.83
2019-01-09T05:50:57.373Z,100925.88
2019-01-09T05:53:25.577Z,100929.98
2019-01-09T05:55:53.759Z,100930.22
2019-01-09T05:58:21.954Z,100934.08
2019-01-09T06:00:50.137Z,100934.88
2019-01-09T06:03:18.347Z,100942.02
2019-01-09T06:05:46.525Z,100944.78
2019-01-09T06:08:14.736Z,100951.38
2019-01-09T06:10:42.910Z,100950.53
2019-01-09T06:13:11.099Z,100943.98
2019-01-09T06:15:39.295Z,100957.90
2019-01-09T06:18:20.259Z,100953.19
2019-01-09T06:20:48.454Z,100955.69
2019-01-09T06:23:16.643Z,100960.61
2019-01-09T06:25:44.852Z,100965.81
2019-01-09T06:28:13.036Z,100968.10
2019-01-09T06:30:41.238Z,100968.13
2019-01-09T06:33:09.607Z,100974.12
2019-01-09T06:35:37.792Z,100979.05
2019-01-09T06:38:05.979Z,100977.93
2019-01-09T06:40:34.175Z,100987.21
2019-01-09T06:43:02.361Z,100993.53
2019-01-09T06:45:30.566Z,101006.67
2019-01-09T06:47:58.744Z,101005.58
2019-01-09T06:50:46.309Z,101002.56
2019-01-09T06:53:14.499Z,101012.74
2019-01-09T06:55:42.695Z,101012.74
2019-01-09T06:58:10.881Z,101011.08
2019-01-09T07:00:39.086Z,101021.48
2019-01-09T07:03:07.266Z,101012.42
2019-01-09T07:05:35.476Z,101015.11
2019-01-09T07:08:43.779Z,101025.52
2019-01-09T07:11:11.972Z,101020.56
2019-01-09T07:13:40.163Z,101027.64
2019-01-09T07:16:08.358Z,101030.11
2019-01-09T07:18:36.539Z,101037.75
2019-01-09T07:21:04.733Z,101036.67
2019-01-09T07:23:32.916Z,101039.16
2019-01-09T07:26:01.126Z,101042.43
2019-01-09T07:28:29.311Z,101052.28
2019-01-09T07:30:57.508Z,101052.55
2019-01-09T07:33:25.691Z,101048.99
2019-01-09T07:35:53.875Z,101055.09
2019-01-09T07:38:22.079Z,101061.65
2019-01-09T07:40:50.264Z,101060.80
2019-01-09T07:43:18.465Z,101066.58
2019-01-09T07:45:46.653Z,101074.25
2019-01-09T07:48:14.924Z,101080.55
2019-01-09T07:50:43.105Z,101076.98
2019-01-09T07:53:11.302Z,101076.70
2019-01-09T07:55:39.485Z,101086.02
2019-01-09T07:58:07.687Z,101093.41
2019-01-09T08:00:35.867Z,101093.39
2019-01-09T08:03:04.069Z,101095.23
2019-01-09T08:05:32.259Z,101103.97
2019-01-09T08:08:00.459Z,101111.64
2019-01-09T08:10:28.637Z,101109.21
2019-01-09T08:12:56.830Z,101117.72
2019-01-09T08:15:25.014Z,101108.70
2019-01-09T08:17:53.205Z,101119.66
2019-01-09T08:20:21.393Z,101127.57
2019-01-09T08:22:49.586Z,101126.78
2019-01-09T08:25:17.776Z,101139.09
2019-01-09T08:27:46.049Z,101146.48
2019-01-09T08:30:14.238Z,101155.78
2019-01-09T08:32:42.430Z,101157.95
2019-01-09T08:35:10.714Z,101161.25
2019-01-09T08:37:38.863Z,101161.80
2019-01-09T08:40:47.180Z,101158.82
2019-01-09T08:43:15.372Z,101167.09
2019-01-09T08:45:43.558Z,101168.77
2019-01-09T08:48:11.761Z,101180.56
2019-01-09T08:50:39.948Z,101174.49
2019-01-09T08:53:08.172Z,101176.09
2019-01-09T08:55:36.356Z,101180.47
2019-01-09T08:58:04.540Z,101188.92
2019-01-09T09:00:32.738Z,101191.61
2019-01-09T09:03:00.922Z,101194.64
2019-01-09T09:05:29.114Z,101193.88
2019-01-09T09:08:37.410Z,101198.52
2019-01-09T09:11:05.643Z,101201.54
2019-01-09T09:13:53.219Z,101210.84
2019-01-09T09:16:21.416Z,101194.42
2019-01-09T09:18:49.613Z,101217.73
2019-01-09T09:21:17.807Z,101216.63
2019-01-09T09:23:45.990Z,101219.89
2019-01-09T09:26:14.184Z,101229.47
2019-01-09T09:28:42.367Z,101237.69
2019-01-09T09:31:10.565Z,101233.03
2019-01-09T09:33:38.747Z,101234.35
2019-01-09T09:36:06.941Z,101241.48
2019-01-09T09:38:35.122Z,101248.03
2019-01-09T09:41:03.369Z,101250.47
2019-01-09T09:43:31.513Z,101248.25
2019-01-09T09:45:59.710Z,101252.37
2019-01-09T09:48:27.894Z,101258.97
2019-01-09T09:50:56.091Z,101271.30
2019-01-09T09:53:24.268Z,101274.87
2019-01-09T09:55:52.476Z,101262.55
2019-01-09T09:58:20.654Z,101268.03
2019-01-09T10:00:48.851Z,101279.28
2019-01-09T10:03:17.039Z,101280.64
2019-01-09T10:05:45.248Z,101269.94
2019-01-09T10:08:13.433Z,101289.38
2019-01-09T10:11:01.064Z,101285.28
2019-01-09T10:13:29.247Z,101286.06
2019-01-09T10:15:57.446Z,101292.31
2019-01-09T10:18:25.634Z,101290.69
2019-01-09T10:20:54.464Z,101292.36
2019-01-09T10:23:23.744Z,101298.97
2019-01-09T10:25:51.927Z,101288.31
2019-01-09T10:28:20.125Z,101299.53
2019-01-09T10:30:48.303Z,101302.56
2019-01-09T10:33:16.511Z,101307.74
2019-01-09T10:35:44.763Z,101300.94
2019-01-09T10:38:12.897Z,101290.77
2019-01-09T10:40:41.077Z,101302.55
2019-01-09T10:43:09.275Z,101305.52
2019-01-09T10:45:37.459Z,101305.21
2019-01-09T10:48:05.674Z,101310.64
2019-01-09T10:50:33.849Z,101316.88
2019-01-09T10:53:02.049Z,101300.12
2019-01-09T10:55:30.231Z,101310.55
2019-01-09T10:57:58.425Z,101306.14
2019-01-09T11:00:26.684Z,101314.05
2019-01-09T11:02:54.872Z,101310.23
2019-01-09T11:05:23.060Z,101313.28
2019-01-09T11:07:51.302Z,101316.03
2019-01-09T11:13:33.733Z,101325.37
2019-01-09T11:16:01.925Z,101303.17
2019-01-09T11:18:30.122Z,101325.92
2019-01-09T11:20:58.305Z,101332.23
2019-01-09T11:23:26.497Z,101326.23
2019-01-09T11:25:54.679Z,101331.41
2019-01-09T11:28:22.880Z,101333.33
2019-01-09T11:30:51.073Z,101328.67
2019-01-09T11:33:19.275Z,101340.98
2019-01-09T11:35:47.455Z,101350.27
2019-01-09T11:38:15.650Z,101348.60
2019-01-09T11:40:43.837Z,101336.28
2019-01-09T11:43:12.053Z,101339.61
2019-01-09T11:45:40.235Z,101347.53
2019-01-09T11:48:08.417Z,101350.83
2019-01-09T11:50:36.612Z,101343.45
2019-01-09T11:53:12.273Z,101354.15
2019-01-09T11:55:40.477Z,101353.33
2019-01-09T11:58:08.661Z,101358.26
2019-01-09T12:00:36.860Z,101358.50
2019-01-09T12:03:05.046Z,101359.03
2019-01-09T12:05:33.249Z,101374.64
2019-01-09T12:08:01.435Z,101360.16
2019-01-09T12:10:30.469Z,101371.12
2019-01-09T12:12:59.537Z,101376.05
2019-01-09T12:15:27.735Z,101372.73
2019-01-09T12:17:55.922Z,101375.75
2019-01-09T12:20:24.116Z,101374.62
2019-01-09T12:22:52.361Z,101387.79
2019-01-09T12:25:20.555Z,101386.43
2019-01-09T12:27:48.740Z,101394.11
2019-01-09T12:30:57.055Z,101390.84
2019-01-09T12:33:25.233Z,101389.22
2019-01-09T12:35:53.434Z,101392.51
2019-01-09T12:38:21.616Z,101404.58
2019-01-09T12:40:49.813Z,101405.66
2019-01-09T12:43:17.990Z,101406.20
2019-01-09T12:45:46.189Z,101413.34
2019-01-09T12:48:14.383Z,101408.16
2019-01-09T12:51:22.710Z,101409.23
2019-01-09T12:53:50.887Z,101412.52
2019-01-09T12:56:19.082Z,101423.22
2019-01-09T12:58:47.272Z,101415.00
2019-01-09T13:01:15.469Z,101414.70
2019-01-09T13:03:43.655Z,101427.86
2019-01-09T13:06:11.857Z,101432.77
2019-01-09T13:08:40.038Z,101430.06
2019-01-09T13:11:08.228Z,101433.92
2019-01-09T13:13:36.410Z,101438.03
2019-01-09T13:16:04.607Z,101440.77
2019-01-09T13:18:32.799Z,101439.66
2019-01-09T13:21:01.062Z,101436.66
2019-01-09T13:23:29.176Z,101455.84
2019-01-09T13:25:57.394Z,101460.23
2019-01-09T13:28:25.572Z,101465.97
2019-01-09T13:30:53.763Z,101462.69
2019-01-09T13:33:21.958Z,101463.77
2019-01-09T13:35:50.141Z,101475.55
2019-01-09T13:38:18.337Z,101484.59
2019-01-09T13:40:46.532Z,101474.72
2019-01-09T13:43:14.733Z,101487.87
2019-01-09T13:45:42.918Z,101488.70
2019-01-09T13:48:11.114Z,101504.05
2019-01-09T13:50:39.297Z,101491.44
2019-01-09T13:53:07.500Z,101501.85
2019-01-09T13:55:35.682Z,101505.96
2019-01-09T13:58:03.878Z,101512.80
2019-01-09T14:00:32.060Z,101516.38
2019-01-09T14:03:00.252Z,101521.56
2019-01-09T14:05:28.438Z,101515.00
2019-01-09T14:07:56.637Z,101511.70
2019-01-09T14:13:38.690Z,101522.65
2019-01-09T14:16:06.869Z,101525.93
2019-01-09T14:18:35.068Z,101531.98
2019-01-09T14:21:03.252Z,101536.09
2019-01-09T14:23:31.441Z,101534.43
2019-01-09T14:25:59.625Z,101550.58
2019-01-09T14:28:27.823Z,101551.95
2019-01-09T14:30:56.006Z,101553.06
2019-01-09T14:33:24.202Z,101553.31
2019-01-09T14:35:52.394Z,101558.00
2019-01-09T14:38:20.589Z,101562.10
2019-01-09T14:40:48.770Z,101566.47
2019-01-09T14:43:16.970Z,101562.09
2019-01-09T14:45:45.192Z,101574.42
2019-01-09T14:48:13.398Z,101547.58
2019-01-09T14:50:41.578Z,101576.91
2019-01-09T14:53:09.763Z,101574.14
2019-01-09T14:55:37.961Z,101571.14
2019-01-09T14:58:06.141Z,101581.27
2019-01-09T15:00:34.346Z,101583.72
2019-01-09T15:03:02.527Z,101580.16
2019-01-09T15:05:30.761Z,101580.45
2019-01-09T15:07:58.917Z,101591.40
2019-01-09T15:11:07.227Z,101596.34
2019-01-09T15:13:35.412Z,101595.50
2019-01-09T15:16:03.610Z,101603.17
2019-01-09T15:18:31.792Z,101600.73
2019-01-09T15:20:59.995Z,101593.88
2019-01-09T15:23:28.188Z,101600.98
2019-01-09T15:28:50.657Z,101609.20
2019-01-09T15:31:18.929Z,101603.18
2019-01-09T15:33:47.109Z,101604.55
2019-01-09T15:36:15.309Z,101605.91
2019-01-09T15:41:30.737Z,101614.13
2019-01-09T15:43:58.929Z,101612.77
2019-01-09T15:46:46.238Z,101625.91
2019-01-09T15:49:14.426Z,101634.95
2019-01-09T15:51:42.622Z,101632.75
2019-01-09T15:54:30.165Z,101633.05
2019-01-09T15:56:58.361Z,101637.15
2019-01-09T15:59:45.910Z,101625.08
2019-01-09T16:02:14.111Z,101639.60
2019-01-09T16:07:29.538Z,101631.66
2019-01-09T16:09:57.723Z,101637.42
2019-01-09T16:12:25.916Z,101629.75
2019-01-09T16:14:54.099Z,101639.61
2019-01-09T16:19:55.993Z,101650.30
2019-01-09T16:22:25.457Z,101652.21
2019-01-09T16:24:54.112Z,101650.55
2019-01-09T16:27:22.302Z,101666.44
2019-01-09T16:29:50.492Z,101661.24
2019-01-09T16:32:18.697Z,101660.95
2019-01-09T16:35:06.090Z,101670.83
2019-01-09T16:37:34.464Z,101677.39
2019-01-09T16:40:02.819Z,101672.19
2019-01-09T16:42:31.018Z,101688.09
2019-01-09T16:44:59.209Z,101690.55
2019-01-09T16:47:27.409Z,101688.62
2019-01-09T16:49:55.595Z,101698.20
2019-01-09T16:52:23.794Z,101705.59
2019-01-09T16:54:51.968Z,101710.27
2019-01-09T16:57:20.171Z,101706.98
2019-01-09T16:59:48.348Z,101712.17
2019-01-09T17:02:16.540Z,101718.75
2019-01-09T17:04:44.726Z,101714.08
2019-01-09T17:07:12.932Z,101720.65
2019-01-09T17:09:41.119Z,101729.41
2019-01-09T17:12:09.348Z,101732.45
2019-01-09T17:14:39.251Z,101730.52
2019-01-09T17:17:07.436Z,101732.97
2019-01-09T17:19:35.626Z,101750.52
2019-01-09T17:22:03.805Z,101742.84
2019-01-09T17:24:32.069Z,101748.86
2019-01-09T17:27:01.905Z,101753.54
2019-01-09T17:29:30.103Z,101760.94
2019-01-09T17:31:58.280Z,101762.28
2019-01-09T17:35:06.593Z,101772.16
2019-01-09T17:37:34.824Z,101778.45
2019-01-09T17:43:17.370Z,101781.73
2019-01-09T17:45:45.565Z,101791.87
2019-01-09T17:48:13.759Z,101799.25
2019-01-09T17:50:43.667Z,101797.91
2019-01-09T17:53:11.865Z,101801.72
2019-01-09T17:55:40.055Z,101806.13
2019-01-09T17:58:08.250Z,101807.48
2019-01-09T18:00:55.871Z,101816.26
2019-01-09T18:05:57.462Z,101819.83
2019-01-09T18:08:25.739Z,101809.95
2019-01-09T18:10:55.650Z,101823.09
2019-01-09T18:13:23.849Z,101829.67
2019-01-09T18:15:52.030Z,101835.42
2019-01-09T18:18:20.248Z,101840.07
2019-01-09T18:20:48.460Z,101835.67
2019-01-09T18:23:16.711Z,101838.16
2019-01-09T18:25:44.912Z,101848.01
2019-01-09T18:28:13.103Z,101844.45
2019-01-09T18:31:21.463Z,101845.00
2019-01-09T18:37:29.267Z,101852.41
2019-01-09T18:40:37.574Z,101861.44
2019-01-09T18:46:45.005Z,101863.63
2019-01-09T18:49:51.997Z,101881.41
2019-01-09T18:55:34.066Z,101888.53
2019-01-09T18:58:04.037Z,101885.49
2019-01-09T19:00:32.235Z,101893.72
2019-01-09T19:03:00.425Z,101896.42
2019-01-09T19:05:28.630Z,101907.66
2019-01-09T19:07:56.821Z,101894.78
2019-01-09T19:10:26.739Z,101898.35
2019-01-09T19:12:54.921Z,101906.01
2019-01-09T19:17:57.344Z,101908.73
2019-01-09T19:20:25.536Z,101906.01
2019-01-09T19:22:55.461Z,101913.93
2019-01-09T19:25:23.657Z,101919.96
2019-01-09T19:27:51.845Z,101918.88
2019-01-09T19:30:39.465Z,101920.55
2019-01-09T19:33:07.646Z,101923.84
2019-01-09T19:35:35.917Z,101932.88
2019-01-09T19:38:23.531Z,101932.59
2019-01-09T19:40:51.723Z,101936.15
2019-01-09T19:43:19.915Z,101940.53
2019-01-09T19:46:07.478Z,101952.04
2019-01-09T19:48:35.664Z,101957.78
2019-01-09T19:51:43.974Z,101962.70
2019-01-09T19:54:12.163Z,101967.09
2019-01-09T19:56:40.360Z,101962.98
2019-01-09T20:02:16.550Z,101976.55
2019-01-09T20:04:44.741Z,101975.39
2019-01-09T20:09:47.006Z,101974.83
2019-01-09T20:12:15.255Z,101984.69
2019-01-09T20:14:43.470Z,101981.95
2019-01-09T20:17:11.703Z,101991.52
2019-01-09T20:19:39.965Z,101992.89
2019-01-09T20:22:08.153Z,101995.61
2019-01-09T20:24:36.334Z,101994.47
2019-01-09T20:27:04.530Z,102002.95
2019-01-09T20:29:52.078Z,102005.09
2019-01-09T20:32:20.316Z,101996.84
2019-01-09T20:34:48.496Z,102004.22
2019-01-09T20:37:16.678Z,102008.03
2019-01-09T20:39:44.877Z,102009.11
2019-01-09T20:42:13.111Z,102016.22
2019-01-09T20:44:41.257Z,102015.39
2019-01-09T20:49:58.326Z,102023.37
2019-01-09T20:52:26.517Z,102021.96
2019-01-09T20:54:54.803Z,102027.44
2019-01-09T20:57:22.981Z,102025.24
2019-01-09T20:59:51.244Z,102023.31
2019-01-09T21:02:38.758Z,102036.68
2019-01-09T21:05:47.033Z,102036.12
2019-01-09T21:10:50.522Z,102046.58
2019-01-09T21:13:18.704Z,102052.31
2019-01-09T21:15:46.954Z,102056.45
2019-01-09T21:18:15.087Z,102051.22
2019-01-09T21:20:43.265Z,102058.89
2019-01-09T21:23:11.453Z,102059.47
2019-01-09T21:25:39.649Z,102063.13
2019-01-09T21:28:07.872Z,102059.84
2019-01-09T21:30:36.031Z,102063.14
2019-01-09T21:35:59.085Z,102070.52
2019-01-09T21:41:01.124Z,102073.33
2019-01-09T21:43:29.334Z,102080.19
2019-01-09T21:45:57.518Z,102088.43
2019-01-09T21:48:25.703Z,102088.16
2019-01-09T21:50:53.905Z,102089.24
2019-01-09T21:53:22.085Z,102087.04
2019-01-09T21:55:50.286Z,102100.78
2019-01-09T21:58:18.465Z,102108.98
2019-01-09T22:00:46.667Z,102104.33
2019-01-09T22:06:03.726Z,102113.59
2019-01-09T22:08:31.907Z,102122.62
2019-01-09T22:11:00.102Z,102118.99
2019-01-09T22:13:28.293Z,102119.80
2019-01-09T22:16:15.608Z,102127.16
2019-01-09T22:18:43.792Z,102133.17
2019-01-09T22:21:11.990Z,102131.83
2019-01-09T22:23:40.172Z,102136.71
2019-01-09T22:26:08.377Z,102143.50
2019-01-09T22:28:36.558Z,102145.94
2019-01-09T22:31:04.754Z,102148.95
2019-01-09T22:33:32.937Z,102144.84
2019-01-09T22:36:01.131Z,102142.07
2019-01-09T22:38:29.315Z,102142.34
2019-01-09T22:40:57.512Z,102146.72
2019-01-09T22:43:25.699Z,102143.68
2019-01-09T22:45:53.898Z,102144.78
2019-01-09T22:48:22.079Z,102140.38
2019-01-09T22:50:50.273Z,102141.74
2019-01-09T22:53:18.452Z,102144.51
2019-01-09T22:55:46.659Z,102147.52
2019-01-09T22:58:14.837Z,102156.56
2019-01-09T23:01:02.638Z,102151.89
2019-01-09T23:03:30.812Z,102151.33
2019-01-09T23:05:59.006Z,102148.02
2019-01-09T23:08:27.185Z,102143.32
2019-01-09T23:10:57.406Z,102142.78
2019-01-09T23:13:25.296Z,102143.32
2019-01-09T23:15:53.476Z,102143.32
2019-01-09T23:18:21.674Z,102147.42
2019-01-09T23:23:38.740Z,102147.12
2019-01-09T23:26:06.923Z,102143.59
2019-01-09T23:28:35.114Z,102141.18
2019-01-09T23:31:03.961Z,102139.24
2019-01-09T23:33:33.213Z,102137.05
2019-01-09T23:36:01.392Z,102146.89
2019-01-09T23:38:29.601Z,102147.98
2019-01-09T23:40:57.795Z,102143.59
2019-01-09T23:43:25.992Z,102147.98
2019-01-09T23:45:54.178Z,102152.63
2019-01-09T23:48:22.373Z,102153.16
2019-01-09T23:50:50.552Z,102151.47
2019-01-09T23:53:18.754Z,102152.00
2019-01-09T23:55:46.938Z,102149.26
2019-01-09T23:58:15.134Z,102150.56
